McMinnville, TN (37110)

5:43 AM CST on January 29, 2015 (GMT -0600)
Faulkner Springs | Change Station
CLOSE
Current Station
Personal Weather Station
Location: McMinnville, TN
Elevation: 928 ft
Nearby Weather Stations

Elev 928 ft 35.72 °N, 85.75 °W | Updated 7 minutes ago

Clear
Clear
41.7 °F
Feels Like 42 °F
N
0.0
Wind Variable Wind from WNW

Today
High -- | Low -- °F
--% Chance of Precip.
Yesterday
High -- | Low -- °F
Precip. -- in
6:45 AM 5:07 PM
Waxing Gibbous, 73% visible
Pressure 30.08 in
Visibility 10.0 miles
Clouds Few 11000 ft
Windchill 42 °F
Dew Point 25 °F
Humidity 51%
Rainfall 0.00 in
Snow Depth Not available.
UV 0 out of 12
Pollen 1.20 out of 12
Air Quality Not available.
Flu Activity Not available.
METAR KSRB 291135Z AUTO 18007KT 10SM FEW110 07/M03 A3008 RMK

More Conditions Fewer Conditions

Pressure 30.08 in
Visibility 10.0 miles
Clouds Few 11000 ft
Windchill 42 °F
Dew Point 25 °F
Humidity 51%
Rainfall 0.00 in
Snow Depth Not available.
UV 0 out of 12
Pollen 1.20 out of 12
Air Quality Not available.
Flu Activity Not available.
METAR KSRB 291135Z AUTO 18007KT 10SM FEW110 07/M03 A3008 RMK

More Conditions Fewer Conditions

10-Day Weather Forecast

Almanac

Astronomy

Jan. 29, 2015 Rise Set
Actual Time
Civil Twilight
Nautical Twilight
Astronomical Twilight
Moon
Length of Visible Light
Length of Day
Tomorrow will be .
, % of the Moon is Illuminated

Today's Extremes

State Highs State Lows

Community

WunderPhotos

Upload Photos

1,791,408 photos uploaded!

WunderBlogs® & News

Nearby

Air Quality

  Air Quality AQ Index Pollutant
Not available.

Snow Depth

Station Depth Elevation

Earthquake Activity

City Distance Mag. Time & Date
Minimum magnitude displayed is 2.5.

Coastal Water Temperatures

Place Temperature

Nearby Weather Stations